Michigan — WDF5344 — position and weather

sailwx.info

Track history (hours):
 
Tides and Currents Weather Stations Pressure Air Temp Water Temp Dewpoint Dewpoint Depression Visibility Wind Speed Wind Dir Waves Ship Positions

Michigan

Owner: GATX Third Aircraft Corporation, San Francisco, CA. More information available from US FCC via Universal Licensing System and Coast Guard Vessel Documentation Center.

Last reported at 2014-Oct-30 08:29 UTC. Time now 2014-Oct-31 05:35 UTC.
Position N 45°39' W 084°11'.

Length 144 m.

Type: Ship (hazmat cat D). MMSI: 303583000.

Date/timePositionNaut miles runAvg speedWind from/ knotsBaromVisibWave heightAir tempDewpointWater temp
2014-Oct-30 08:29N 45°39' W 084°11'9 9.7
2014-Oct-30 07:33N 45°41' W 084°23'10 9.8
2014-Oct-30 06:33N 45°45' W 084°35'9 9.5
2014-Oct-30 05:33N 45°49' W 084°48'10 9.7
2014-Oct-30 04:34N 45°50' W 085°02'10 9.9
2014-Oct-30 03:34N 45°52' W 085°16'1010.2
2014-Oct-30 02:33N 45°53' W 085°30'1010.2
2014-Oct-30 01:33N 45°53' W 085°45'1010.4
2014-Oct-30 00:33N 45°53' W 086°00'  
2014-Oct-22 06:11N 45°38' W 086°13'710.8
2014-Oct-22 05:33N 45°42' W 086°05'1110.9
2014-Oct-22 04:33N 45°47' W 085°51'1110.8
2014-Oct-22 03:33N 45°52' W 085°37'1010.4
2014-Oct-22 02:33N 45°53' W 085°23'1110.6
2014-Oct-22 01:33N 45°51' W 085°07'1110.6
2014-Oct-22 00:33N 45°50' W 084°52'1010.3
2014-Oct-21 23:33N 45°47' W 084°38'1010.1
2014-Oct-21 22:33N 45°40' W 084°27'1 1.5
2014-Oct-21 21:33N 45°39' W 084°28'0 0.0
2014-Oct-21 20:33N 45°39' W 084°28'0 0.0
2014-Oct-21 19:33N 45°39' W 084°28'0 0.0
2014-Oct-21 18:33N 45°39' W 084°28'0 0.0
2014-Oct-21 17:33N 45°39' W 084°28'0 0.0
2014-Oct-21 16:33N 45°39' W 084°28'0 0.0
2014-Oct-21 15:33N 45°39' W 084°28'0 0.0
2014-Oct-21 14:33N 45°39' W 084°28'0 0.0
2014-Oct-21 13:33N 45°39' W 084°28'0 0.0
2014-Oct-21 12:33N 45°39' W 084°28'0 0.0
2014-Oct-21 11:33N 45°39' W 084°28'0 0.0
2014-Oct-21 10:33N 45°39' W 084°28'0 0.0
2014-Oct-21 09:33N 45°39' W 084°28'0 0.0
2014-Oct-21 08:33N 45°39' W 084°28'0 0.0
2014-Oct-21 07:33N 45°39' W 084°28'1729.4
2014-Oct-21 07:00N 45°24' W 084°18'1738.1 040 / 181016.510.8 0.5 5.5
2014-Oct-21 06:33N 45°39' W 084°28'0 0.0
2014-Oct-21 05:33N 45°39' W 084°28'0 0.0
2014-Oct-21 04:33N 45°39' W 084°28'0 0.0
2014-Oct-21 03:33N 45°39' W 084°28'0 0.0
2014-Oct-21 02:33N 45°39' W 084°28'0 0.0
2014-Oct-21 01:33N 45°39' W 084°28'0 0.0
2014-Oct-21 00:33N 45°39' W 084°28'0 0.0
2014-Oct-20 23:33N 45°39' W 084°28'0 0.0
2014-Oct-20 22:33N 45°39' W 084°28'0 0.0
2014-Oct-20 21:33N 45°39' W 084°28'0 0.0
2014-Oct-20 20:33N 45°39' W 084°28'0 0.0
2014-Oct-20 19:33N 45°39' W 084°28'0 0.0
2014-Oct-20 18:33N 45°39' W 084°28'0 0.0
2014-Oct-20 17:33N 45°39' W 084°28'0 0.0
2014-Oct-20 16:33N 45°39' W 084°28'0 0.0
2014-Oct-20 15:33N 45°39' W 084°28'0 0.0
2014-Oct-20 14:33N 45°39' W 084°28'0 0.0
2014-Oct-20 13:33N 45°39' W 084°28'0 0.0
2014-Oct-20 12:33N 45°39' W 084°28'0 0.0
2014-Oct-20 11:33N 45°39' W 084°28'0 0.0
2014-Oct-20 10:33N 45°39' W 084°28'0 0.0
2014-Oct-20 09:33N 45°39' W 084°28'0 0.0
2014-Oct-20 08:33N 45°39' W 084°28'  
Track history (hours):
 
Tides and Currents Weather Stations Pressure Air Temp Water Temp Dewpoint Dewpoint Depression Visibility Wind Speed Wind Dir Waves Ship Positions

Michigan

Owner: GATX Third Aircraft Corporation, San Francisco, CA. More information available from US FCC via Universal Licensing System and Coast Guard Vessel Documentation Center.

Last reported at 2014-Oct-30 08:29 UTC. Time now 2014-Oct-31 05:35 UTC.
Position N 45°39' W 084°11'.

Length 144 m.

Type: Ship (hazmat cat D). MMSI: 303583000.

Date/timePositionNaut miles runAvg speedWind from/ knotsBaromVisibWave heightAir tempDewpointWater temp
2014-Oct-30 08:29N 45°39' W 084°11'9 9.7
2014-Oct-30 07:33N 45°41' W 084°23'10 9.8
2014-Oct-30 06:33N 45°45' W 084°35'9 9.5
2014-Oct-30 05:33N 45°49' W 084°48'10 9.7
2014-Oct-30 04:34N 45°50' W 085°02'10 9.9
2014-Oct-30 03:34N 45°52' W 085°16'1010.2
2014-Oct-30 02:33N 45°53' W 085°30'1010.2
2014-Oct-30 01:33N 45°53' W 085°45'1010.4
2014-Oct-30 00:33N 45°53' W 086°00'  
2014-Oct-22 06:11N 45°38' W 086°13'710.8
2014-Oct-22 05:33N 45°42' W 086°05'1110.9
2014-Oct-22 04:33N 45°47' W 085°51'1110.8
2014-Oct-22 03:33N 45°52' W 085°37'1010.4
2014-Oct-22 02:33N 45°53' W 085°23'1110.6
2014-Oct-22 01:33N 45°51' W 085°07'1110.6
2014-Oct-22 00:33N 45°50' W 084°52'1010.3
2014-Oct-21 23:33N 45°47' W 084°38'1010.1
2014-Oct-21 22:33N 45°40' W 084°27'1 1.5
2014-Oct-21 21:33N 45°39' W 084°28'0 0.0
2014-Oct-21 20:33N 45°39' W 084°28'0 0.0
2014-Oct-21 19:33N 45°39' W 084°28'0 0.0
2014-Oct-21 18:33N 45°39' W 084°28'0 0.0
2014-Oct-21 17:33N 45°39' W 084°28'0 0.0
2014-Oct-21 16:33N 45°39' W 084°28'0 0.0
2014-Oct-21 15:33N 45°39' W 084°28'0 0.0
2014-Oct-21 14:33N 45°39' W 084°28'0 0.0
2014-Oct-21 13:33N 45°39' W 084°28'0 0.0
2014-Oct-21 12:33N 45°39' W 084°28'0 0.0
2014-Oct-21 11:33N 45°39' W 084°28'0 0.0
2014-Oct-21 10:33N 45°39' W 084°28'0 0.0
2014-Oct-21 09:33N 45°39' W 084°28'0 0.0
2014-Oct-21 08:33N 45°39' W 084°28'0 0.0
2014-Oct-21 07:33N 45°39' W 084°28'1729.4
2014-Oct-21 07:00N 45°24' W 084°18'1738.1 040 / 181016.510.8 0.5 5.5
2014-Oct-21 06:33N 45°39' W 084°28'0 0.0
2014-Oct-21 05:33N 45°39' W 084°28'0 0.0
2014-Oct-21 04:33N 45°39' W 084°28'0 0.0
2014-Oct-21 03:33N 45°39' W 084°28'0 0.0
2014-Oct-21 02:33N 45°39' W 084°28'0 0.0
2014-Oct-21 01:33N 45°39' W 084°28'0 0.0
2014-Oct-21 00:33N 45°39' W 084°28'0 0.0
2014-Oct-20 23:33N 45°39' W 084°28'0 0.0
2014-Oct-20 22:33N 45°39' W 084°28'0 0.0
2014-Oct-20 21:33N 45°39' W 084°28'0 0.0
2014-Oct-20 20:33N 45°39' W 084°28'0 0.0
2014-Oct-20 19:33N 45°39' W 084°28'0 0.0
2014-Oct-20 18:33N 45°39' W 084°28'0 0.0
2014-Oct-20 17:33N 45°39' W 084°28'0 0.0
2014-Oct-20 16:33N 45°39' W 084°28'0 0.0
2014-Oct-20 15:33N 45°39' W 084°28'0 0.0
2014-Oct-20 14:33N 45°39' W 084°28'0 0.0
2014-Oct-20 13:33N 45°39' W 084°28'0 0.0
2014-Oct-20 12:33N 45°39' W 084°28'0 0.0
2014-Oct-20 11:33N 45°39' W 084°28'0 0.0
2014-Oct-20 10:33N 45°39' W 084°28'0 0.0
2014-Oct-20 09:33N 45°39' W 084°28'0 0.0
2014-Oct-20 08:33N 45°39' W 084°28'  

Dump ship's entire track history